Time;durP1;ratioP1;P1;durP2;ratioP2;P2;SDS_P1;SDS_P2;PMS_P1;PMS_P2;Temp;Humidity;BMP_temperature;BMP_pressure;BME280_temperature;BME280_humidity;BME280_pressure;Samples;Min_cycle;Max_cycle;Signal;HPM_P1;HPM_P2
2022/08/05 00:01:46;;;;;;;7.07;3.17;;;18.50;99.10;;;;;;5010686;28;20050;-63
2022/08/05 00:04:11;;;;;;;7.78;3.28;;;18.50;99.00;;;;;;5010086;28;20453;-61
2022/08/05 00:06:37;;;;;;;6.07;3.28;;;18.60;98.90;;;;;;5010846;28;20026;-64
2022/08/05 00:09:03;;;;;;;5.47;2.63;;;18.60;98.90;;;;;;5010448;28;20437;-68
2022/08/05 00:11:30;;;;;;;5.13;3.08;;;18.70;98.80;;;;;;5010325;28;20057;-60
2022/08/05 00:13:55;;;;;;;7.80;4.22;;;18.70;98.70;;;;;;5010285;28;20025;-60
2022/08/05 00:16:21;;;;;;;8.60;3.55;;;18.70;98.50;;;;;;5010201;28;20439;-61
2022/08/05 00:18:47;;;;;;;8.02;3.38;;;18.60;98.40;;;;;;5010385;28;20022;-61
2022/08/05 00:21:13;;;;;;;6.10;3.38;;;18.60;98.40;;;;;;5011134;28;20526;-67
2022/08/05 00:23:40;;;;;;;6.22;3.35;;;18.60;98.30;;;;;;5010131;28;20030;-62
2022/08/05 00:26:06;;;;;;;6.35;3.95;;;18.60;98.40;;;;;;5010468;28;20108;-70
2022/08/05 00:28:33;;;;;;;6.13;3.50;;;18.60;98.20;;;;;;5011229;28;20029;-62
2022/08/05 00:30:59;;;;;;;8.07;3.78;;;18.60;98.20;;;;;;5009606;28;20414;-64
2022/08/05 00:33:25;;;;;;;5.25;3.15;;;18.60;98.20;;;;;;5010745;28;20053;-62
2022/08/05 00:35:50;;;;;;;6.85;3.60;;;18.60;98.20;;;;;;4992376;28;20477;-61
2022/08/05 00:38:16;;;;;;;8.95;3.65;;;18.50;98.10;;;;;;5010018;28;20033;-62
2022/08/05 00:40:46;;;;;;;7.63;3.10;;;18.60;98.10;;;;;;5010372;28;20113;-61
2022/08/05 00:43:12;;;;;;;6.45;3.33;;;18.60;98.10;;;;;;4992711;28;20096;-61
2022/08/05 00:45:38;;;;;;;6.47;3.40;;;18.60;98.10;;;;;;5012751;28;20478;-61
2022/08/05 00:48:04;;;;;;;6.10;3.35;;;18.50;98.10;;;;;;5014115;28;20025;-70
2022/08/05 00:50:29;;;;;;;6.22;3.25;;;18.50;98.20;;;;;;5014222;28;20033;-69
2022/08/05 00:52:55;;;;;;;7.30;3.67;;;18.50;98.20;;;;;;5013260;28;20056;-74
2022/08/05 00:55:21;;;;;;;6.38;3.53;;;18.40;98.20;;;;;;5014539;28;20029;-72
2022/08/05 00:57:46;;;;;;;6.40;3.17;;;18.40;98.10;;;;;;5013698;28;20375;-67
2022/08/05 01:00:12;;;;;;;7.20;3.33;;;18.40;98.10;;;;;;5013783;28;20432;-69
2022/08/05 01:02:38;;;;;;;6.85;3.22;;;18.40;98.00;;;;;;5014102;28;20033;-75
2022/08/05 01:05:04;;;;;;;5.95;3.22;;;18.50;98.10;;;;;;5024876;28;20026;-75
2022/08/05 01:07:29;;;;;;;7.80;3.53;;;18.40;98.00;;;;;;5033250;28;20037;-75
2022/08/05 01:09:55;;;;;;;5.07;3.20;;;18.40;98.00;;;;;;5033395;28;20367;-75
2022/08/05 01:12:23;;;;;;;8.27;3.50;;;18.40;98.00;;;;;;5033792;28;20018;-75
2022/08/05 01:15:02;;;;;;;7.78;4.13;;;18.40;97.90;;;;;;5015009;28;20536;-74
2022/08/05 01:17:35;;;;;;;9.27;3.90;;;18.50;97.90;;;;;;5033745;28;20067;-74
2022/08/05 01:20:34;;;;;;;7.15;4.00;;;18.50;97.90;;;;;;5032613;28;20033;-74
2022/08/05 01:23:33;;;;;;;8.35;3.47;;;18.50;98.00;;;;;;5033170;28;20030;-64
2022/08/05 01:26:12;;;;;;;6.95;4.00;;;18.40;98.00;;;;;;5032801;28;20033;-68
2022/08/05 01:28:57;;;;;;;6.28;3.67;;;18.50;98.00;;;;;;5015129;28;20060;-63
2022/08/05 01:31:22;;;;;;;7.97;3.75;;;18.40;98.00;;;;;;5033084;28;20045;-69
2022/08/05 01:34:00;;;;;;;7.15;3.75;;;18.50;98.00;;;;;;5014505;28;20057;-69
2022/08/05 01:36:31;;;;;;;8.02;3.90;;;18.50;98.00;;;;;;5033086;28;20049;-66
2022/08/05 01:38:58;;;;;;;7.97;4.03;;;18.50;98.00;;;;;;5032677;28;20026;-69
2022/08/05 01:41:26;;;;;;;7.10;3.70;;;18.50;97.90;;;;;;5032370;28;20036;-71
2022/08/05 01:43:53;;;;;;;7.00;3.70;;;18.50;97.90;;;;;;5014606;28;20017;-65
2022/08/05 01:46:20;;;;;;;9.75;3.80;;;18.50;97.90;;;;;;5032749;28;20103;-70
2022/08/05 01:48:47;;;;;;;8.93;3.95;;;18.40;98.20;;;;;;5031985;28;20500;-62
2022/08/05 01:51:15;;;;;;;7.95;3.85;;;18.40;97.90;;;;;;5015245;28;20022;-65
2022/08/05 01:53:41;;;;;;;6.07;3.85;;;18.40;97.90;;;;;;5014968;28;20017;-68
2022/08/05 01:56:08;;;;;;;6.03;3.50;;;18.50;97.90;;;;;;5031622;28;20394;-63
2022/08/05 01:58:35;;;;;;;5.68;3.35;;;18.50;97.80;;;;;;5014898;28;20021;-69
2022/08/05 02:01:02;;;;;;;6.38;3.47;;;18.50;97.80;;;;;;5032419;28;20113;-73
2022/08/05 02:03:32;;;;;;;8.55;3.63;;;18.50;97.80;;;;;;5031973;28;20132;-69
2022/08/05 02:06:01;;;;;;;6.40;3.35;;;18.50;97.70;;;;;;5032451;28;20029;-69
2022/08/05 02:08:27;;;;;;;7.00;3.35;;;18.50;97.70;;;;;;5014690;28;20095;-62
2022/08/05 02:11:07;;;;;;;7.00;3.65;;;18.50;97.70;;;;;;5014269;28;20407;-65
2022/08/05 02:13:42;;;;;;;7.00;3.55;;;18.50;97.60;;;;;;5014651;28;20061;-68
2022/08/05 02:16:19;;;;;;;9.40;4.90;;;18.50;97.70;;;;;;5031456;28;20033;-67
2022/08/05 02:19:12;;;;;;;8.38;4.00;;;18.40;97.60;;;;;;5032315;28;20490;-73
2022/08/05 02:22:05;;;;;;;6.30;3.70;;;18.40;97.70;;;;;;5032129;28;20048;-66
2022/08/05 02:24:38;;;;;;;9.65;4.50;;;18.50;97.60;;;;;;5021008;28;20088;-73
2022/08/05 02:27:07;;;;;;;6.80;3.50;;;18.50;97.70;;;;;;5031893;28;20419;-68
2022/08/05 02:29:35;;;;;;;6.18;3.80;;;18.50;97.60;;;;;;5032062;28;20026;-64
2022/08/05 02:32:02;;;;;;;6.82;3.75;;;18.60;97.60;;;;;;5030873;28;20042;-73
2022/08/05 02:34:31;;;;;;;9.77;3.97;;;18.60;97.50;;;;;;5031982;28;20036;-60
2022/08/05 02:37:01;;;;;;;9.82;4.30;;;18.60;97.50;;;;;;5030972;28;20533;-60
2022/08/05 02:39:33;;;;;;;5.72;3.53;;;18.60;97.50;;;;;;5031715;28;20036;-60
2022/08/05 02:42:00;;;;;;;5.93;3.22;;;18.60;97.40;;;;;;5031274;28;20486;-60
2022/08/05 02:44:28;;;;;;;5.30;2.80;;;18.60;97.30;;;;;;5030994;28;20072;-60
2022/08/05 02:46:55;;;;;;;5.95;3.80;;;18.70;97.20;;;;;;5031295;28;20466;-60
2022/08/05 02:49:22;;;;;;;5.35;3.60;;;18.70;97.20;;;;;;5031594;28;20064;-60
2022/08/05 02:51:48;;;;;;;6.32;3.60;;;18.60;97.20;;;;;;5030608;28;20030;-60
2022/08/05 02:54:14;;;;;;;6.38;3.30;;;18.60;97.20;;;;;;5031408;28;20030;-60
2022/08/05 02:56:44;;;;;;;10.95;3.78;;;18.50;97.20;;;;;;5031628;28;20436;-60
2022/08/05 02:59:11;;;;;;;7.63;4.18;;;18.50;97.30;;;;;;5012464;28;20022;-60
2022/08/05 03:01:39;;;;;;;7.45;4.10;;;18.50;97.40;;;;;;5031742;28;20025;-73
2022/08/05 03:04:08;;;;;;;6.80;3.88;;;18.50;97.40;;;;;;5030409;28;20044;-68
2022/08/05 03:06:34;;;;;;;6.60;3.97;;;18.50;97.50;;;;;;5030385;28;20041;-74
2022/08/05 03:09:00;;;;;;;7.15;3.50;;;18.50;97.40;;;;;;5029907;28;20037;-70
2022/08/05 03:11:27;;;;;;;8.35;3.55;;;18.50;97.40;;;;;;5031786;28;20041;-73
2022/08/05 03:13:53;;;;;;;7.82;4.07;;;18.50;97.40;;;;;;5012623;28;20307;-72
2022/08/05 03:16:19;;;;;;;6.85;4.13;;;18.40;97.40;;;;;;5031513;28;20131;-72
2022/08/05 03:18:45;;;;;;;10.18;4.45;;;18.40;97.40;;;;;;5031623;28;20101;-74
2022/08/05 03:21:11;;;;;;;8.35;4.00;;;18.40;97.50;;;;;;5012898;28;20183;-75
2022/08/05 03:23:39;;;;;;;6.10;3.53;;;18.40;97.50;;;;;;5031292;28;20033;-74
2022/08/05 03:26:05;;;;;;;6.78;3.88;;;18.40;97.50;;;;;;5030811;28;20482;-76
2022/08/05 03:28:31;;;;;;;7.05;3.53;;;18.40;97.50;;;;;;5031463;28;20091;-75
2022/08/05 03:30:59;;;;;;;5.53;3.78;;;18.40;97.50;;;;;;5030916;28;20048;-75
2022/08/05 03:33:26;;;;;;;6.30;3.70;;;18.40;97.40;;;;;;5030598;28;20505;-76
2022/08/05 03:35:53;;;;;;;6.15;3.55;;;18.40;97.50;;;;;;5030747;28;20473;-75
2022/08/05 03:38:21;;;;;;;5.57;3.33;;;18.40;97.40;;;;;;5031150;28;20071;-75
2022/08/05 03:40:46;;;;;;;7.45;4.00;;;18.40;97.40;;;;;;5030289;28;20041;-69
2022/08/05 03:43:13;;;;;;;6.43;3.17;;;18.40;97.50;;;;;;5045839;28;20038;-74
2022/08/05 03:45:38;;;;;;;9.52;4.28;;;18.40;97.40;;;;;;5031018;28;20116;-63
2022/08/05 03:48:04;;;;;;;7.13;3.95;;;18.40;97.40;;;;;;5029788;28;20212;-63
2022/08/05 03:50:55;;;;;;;6.65;3.80;;;18.40;97.40;;;;;;5030844;28;20025;-64
2022/08/05 03:53:35;;;;;;;8.98;4.03;;;18.40;97.50;;;;;;5030776;28;20080;-65
2022/08/05 03:56:22;;;;;;;6.70;4.15;;;18.40;97.50;;;;;;5012204;28;20033;-61
2022/08/05 03:58:49;;;;;;;7.75;4.30;;;18.40;97.60;;;;;;5005768;28;20124;-64
2022/08/05 04:01:18;;;;;;;7.85;4.57;;;18.30;97.60;;;;;;5030494;28;20065;-61
2022/08/05 04:03:47;;;;;;;6.95;4.60;;;18.30;97.60;;;;;;5030463;28;20531;-60
2022/08/05 04:06:14;;;;;;;8.85;4.43;;;18.30;98.00;;;;;;5030621;28;20025;-64
2022/08/05 04:08:41;;;;;;;9.25;4.50;;;18.20;97.70;;;;;;5012391;28;20112;-61
2022/08/05 04:11:07;;;;;;;7.65;4.35;;;18.20;97.80;;;;;;5030213;28;20532;-60
2022/08/05 04:13:33;;;;;;;8.18;4.55;;;18.20;97.80;;;;;;5030566;28;20501;-64
2022/08/05 04:15:59;;;;;;;8.30;4.47;;;18.30;97.90;;;;;;5029831;28;20026;-60
2022/08/05 04:18:24;;;;;;;7.50;4.05;;;18.20;97.80;;;;;;5031683;28;20041;-61
2022/08/05 04:20:55;;;;;;;9.23;5.25;;;18.30;97.80;;;;;;5034111;28;20479;-64
2022/08/05 04:23:25;;;;;;;5.47;3.55;;;18.30;97.80;;;;;;5033698;28;20021;-65
2022/08/05 04:25:51;;;;;;;8.90;4.97;;;18.30;97.70;;;;;;5034038;28;20532;-65
2022/08/05 04:28:18;;;;;;;9.38;4.50;;;18.30;97.70;;;;;;5010245;28;20026;-61
2022/08/05 04:30:45;;;;;;;8.85;3.85;;;18.30;97.60;;;;;;5030349;28;20410;-60
2022/08/05 04:33:11;;;;;;;9.10;4.88;;;18.30;97.60;;;;;;5052045;28;20539;-60
2022/08/05 04:35:37;;;;;;;7.68;4.47;;;18.40;97.50;;;;;;5033826;28;20045;-60
2022/08/05 04:38:02;;;;;;;6.90;4.30;;;18.40;97.60;;;;;;5014705;28;20091;-60
2022/08/05 04:40:28;;;;;;;7.32;4.82;;;18.40;97.60;;;;;;5015950;28;20502;-61
2022/08/05 04:42:53;;;;;;;7.28;4.72;;;18.30;97.60;;;;;;5015441;28;20022;-60
2022/08/05 04:45:20;;;;;;;8.05;4.03;;;18.30;97.70;;;;;;5034102;28;20450;-60
2022/08/05 04:47:45;;;;;;;7.88;4.40;;;18.30;97.80;;;;;;5053140;28;20059;-60
2022/08/05 04:50:11;;;;;;;10.38;5.00;;;18.30;97.90;;;;;;5035354;28;20163;-60
2022/08/05 04:52:36;;;;;;;8.10;4.50;;;18.20;97.90;;;;;;5018449;28;20049;-60
2022/08/05 04:55:03;;;;;;;7.15;4.18;;;18.20;97.90;;;;;;5014718;28;20060;-66
2022/08/05 04:57:28;;;;;;;8.70;4.57;;;18.20;97.90;;;;;;5031901;28;20060;-60
2022/08/05 04:59:54;;;;;;;6.70;4.13;;;18.20;98.00;;;;;;5023848;28;20038;-60
2022/08/05 05:02:19;;;;;;;6.57;4.18;;;18.20;97.90;;;;;;5015276;28;20382;-60
2022/08/05 05:04:46;;;;;;;7.57;4.43;;;18.30;98.00;;;;;;5029129;28;20132;-63
2022/08/05 05:07:12;;;;;;;9.30;4.32;;;18.20;98.00;;;;;;5031406;28;20101;-59
2022/08/05 05:09:38;;;;;;;7.70;4.65;;;18.30;98.00;;;;;;5037597;28;20426;-61
2022/08/05 05:12:04;;;;;;;8.93;4.13;;;18.30;97.90;;;;;;5035515;28;20022;-60
2022/08/05 05:14:29;;;;;;;8.05;4.90;;;18.30;97.90;;;;;;5013486;28;20075;-63
2022/08/05 05:16:55;;;;;;;9.80;4.75;;;18.30;97.80;;;;;;5013386;28;20105;-67
2022/08/05 05:19:21;;;;;;;10.45;4.57;;;18.40;97.70;;;;;;5014363;28;20208;-69
2022/08/05 05:21:46;;;;;;;7.80;3.90;;;18.40;97.70;;;;;;5019459;28;20033;-61
2022/08/05 05:24:13;;;;;;;8.40;4.57;;;18.40;97.60;;;;;;5013938;28;20068;-65
2022/08/05 05:26:38;;;;;;;8.82;4.10;;;18.50;97.60;;;;;;5031319;28;20018;-68
2022/08/05 05:29:04;;;;;;;6.85;4.10;;;18.50;97.50;;;;;;5014376;28;20036;-65
2022/08/05 05:31:29;;;;;;;8.02;4.35;;;18.60;97.40;;;;;;5027331;28;20041;-67
2022/08/05 05:33:55;;;;;;;8.60;4.00;;;18.60;97.30;;;;;;5023943;28;20032;-60
2022/08/05 05:36:21;;;;;;;7.00;3.97;;;18.60;97.50;;;;;;5038413;28;20052;-61
2022/08/05 05:38:46;;;;;;;8.38;4.28;;;18.60;97.20;;;;;;5053397;28;20111;-67
2022/08/05 05:41:12;;;;;;;8.38;4.40;;;18.70;97.10;;;;;;5033308;28;20041;-61
2022/08/05 05:43:37;;;;;;;7.13;4.22;;;18.70;97.10;;;;;;5033144;28;20017;-74
2022/08/05 05:46:03;;;;;;;6.47;3.90;;;18.70;97.10;;;;;;5031024;28;20432;-74
2022/08/05 05:48:28;;;;;;;9.90;4.22;;;18.80;97.00;;;;;;5032099;28;20026;-74
2022/08/05 05:50:54;;;;;;;10.43;4.00;;;18.90;96.90;;;;;;5016951;28;20113;-71
2022/08/05 05:53:20;;;;;;;6.75;4.40;;;18.90;96.80;;;;;;5027832;28;20044;-75
2022/08/05 05:55:46;;;;;;;6.80;4.18;;;19.00;96.70;;;;;;5042424;28;20056;-61
2022/08/05 05:58:11;;;;;;;6.75;4.07;;;19.00;97.00;;;;;;5028493;28;20028;-74
2022/08/05 06:00:37;;;;;;;6.18;3.80;;;18.90;96.50;;;;;;5019341;28;20041;-71
2022/08/05 06:03:02;;;;;;;6.07;4.63;;;18.80;96.60;;;;;;5008000;28;20033;-71
2022/08/05 06:05:28;;;;;;;7.30;4.72;;;18.70;96.60;;;;;;5027869;28;20481;-76
2022/08/05 06:07:54;;;;;;;6.75;4.20;;;18.70;96.80;;;;;;5011346;28;20017;-70
2022/08/05 06:10:19;;;;;;;9.77;4.57;;;18.70;96.80;;;;;;5008460;28;20033;-71
2022/08/05 06:12:45;;;;;;;8.07;4.57;;;18.60;96.80;;;;;;5010851;28;20068;-76
2022/08/05 06:15:11;;;;;;;7.15;4.30;;;18.60;96.80;;;;;;5021290;28;20068;-70
2022/08/05 06:17:36;;;;;;;7.32;4.28;;;18.70;96.80;;;;;;5027117;28;20063;-68
2022/08/05 06:20:04;;;;;;;6.30;3.50;;;18.60;96.80;;;;;;5018277;28;21073;-75
2022/08/05 06:22:33;;;;;;;7.40;4.22;;;18.60;96.70;;;;;;5029561;28;20029;-72
2022/08/05 06:24:59;;;;;;;7.38;4.07;;;18.70;96.80;;;;;;5014023;28;20478;-67
2022/08/05 06:27:25;;;;;;;5.93;3.50;;;18.70;96.80;;;;;;5033224;28;20029;-61
2022/08/05 06:29:50;;;;;;;8.85;4.00;;;18.80;96.70;;;;;;5037332;28;20450;-63
2022/08/05 06:32:16;;;;;;;8.73;4.50;;;19.00;96.60;;;;;;5031160;28;20047;-62
2022/08/05 06:34:42;;;;;;;7.25;3.50;;;19.10;96.40;;;;;;4994574;28;20061;-60
2022/08/05 06:37:07;;;;;;;5.45;3.33;;;19.20;96.10;;;;;;4989353;28;20056;-60
2022/08/05 06:39:33;;;;;;;7.28;3.75;;;19.30;96.10;;;;;;5006760;28;20118;-61
2022/08/05 06:42:01;;;;;;;5.38;3.60;;;19.20;96.00;;;;;;4990220;28;20018;-61
2022/08/05 06:44:27;;;;;;;5.85;3.80;;;19.30;96.00;;;;;;4990076;28;20145;-61
2022/08/05 06:46:53;;;;;;;8.93;4.65;;;19.40;95.90;;;;;;5005057;28;20024;-61
2022/08/05 06:49:19;;;;;;;6.97;3.50;;;19.50;95.70;;;;;;5011355;28;20022;-60
2022/08/05 06:51:44;;;;;;;6.53;3.75;;;19.50;95.40;;;;;;4998868;28;20040;-61
2022/08/05 06:54:10;;;;;;;6.50;3.80;;;19.60;95.30;;;;;;4996863;28;20101;-60
2022/08/05 06:56:37;;;;;;;6.70;3.45;;;19.60;95.00;;;;;;4997712;28;20053;-61
2022/08/05 06:59:03;;;;;;;7.15;3.38;;;19.50;95.00;;;;;;5005618;28;20030;-61
2022/08/05 07:01:29;;;;;;;6.10;3.15;;;19.50;95.00;;;;;;4989794;28;20038;-65
2022/08/05 07:03:54;;;;;;;5.47;3.63;;;19.40;95.00;;;;;;5010850;28;20025;-61
2022/08/05 07:06:21;;;;;;;7.47;3.70;;;19.40;95.10;;;;;;5009891;28;20034;-61
2022/08/05 07:08:47;;;;;;;6.85;3.88;;;19.50;95.10;;;;;;5010413;28;20022;-65
2022/08/05 07:11:12;;;;;;;5.65;3.33;;;19.50;95.10;;;;;;5011161;28;20496;-61
2022/08/05 07:19:06;;;;;;;6.85;3.45;;;19.80;94.30;;;;;;5010585;28;20061;-61
2022/08/05 07:21:32;;;;;;;3.88;2.83;;;19.90;94.00;;;;;;5011468;28;20470;-62
2022/08/05 07:23:58;;;;;;;5.85;3.38;;;19.90;93.80;;;;;;5011031;28;20026;-63
2022/08/05 07:26:23;;;;;;;7.18;3.25;;;19.90;93.80;;;;;;5010933;28;20034;-66
2022/08/05 07:28:52;;;;;;;5.45;3.25;;;20.00;93.60;;;;;;5011477;28;20029;-78
2022/08/05 07:31:18;;;;;;;7.50;3.50;;;19.90;93.40;;;;;;5011819;28;20463;-80
2022/08/05 07:33:43;;;;;;;4.28;3.10;;;19.90;93.30;;;;;;5010878;28;20022;-68
2022/08/05 07:36:09;;;;;;;5.53;3.13;;;20.00;93.30;;;;;;5026568;28;20048;-78
2022/08/05 07:38:36;;;;;;;5.90;3.22;;;20.00;93.20;;;;;;5031285;28;20061;-67
2022/08/05 07:41:06;;;;;;;3.85;2.53;;;20.10;93.20;;;;;;5012618;28;20043;-70
2022/08/05 07:43:32;;;;;;;4.60;2.72;;;20.10;93.10;;;;;;5031302;28;20025;-63
2022/08/05 07:45:57;;;;;;;4.30;2.97;;;20.20;93.00;;;;;;5030438;28;20082;-67
2022/08/05 07:48:23;;;;;;;7.00;3.00;;;20.30;92.60;;;;;;5030185;28;20334;-65
2022/08/05 07:50:49;;;;;;;5.07;2.67;;;20.30;92.20;;;;;;5030511;28;20030;-64
2022/08/05 07:53:15;;;;;;;6.72;2.90;;;20.20;92.30;;;;;;5030322;28;20056;-70
2022/08/05 07:55:40;;;;;;;4.50;2.67;;;20.30;92.50;;;;;;5012265;28;20045;-68
2022/08/05 07:58:06;;;;;;;5.53;3.92;;;20.40;92.40;;;;;;5030603;28;20028;-69
2022/08/05 08:00:31;;;;;;;6.47;2.90;;;20.30;92.00;;;;;;5030026;28;20034;-76
2022/08/05 08:02:57;;;;;;;4.60;2.33;;;20.40;92.00;;;;;;5012550;28;20159;-70
2022/08/05 08:05:22;;;;;;;5.30;2.70;;;20.50;92.10;;;;;;5031123;28;20048;-73
2022/08/05 08:07:48;;;;;;;4.93;2.65;;;20.50;92.00;;;;;;5029698;28;20021;-71
2022/08/05 08:10:14;;;;;;;5.70;2.40;;;20.60;91.70;;;;;;5030777;28;20017;-80
2022/08/05 08:12:39;;;;;;;6.10;2.15;;;20.60;91.30;;;;;;5030688;28;20537;-78
2022/08/05 08:15:07;;;;;;;6.22;2.53;;;20.60;91.00;;;;;;5029712;28;20029;-73
2022/08/05 08:17:33;;;;;;;4.03;2.38;;;20.60;90.70;;;;;;5030468;28;20033;-81
2022/08/05 08:19:59;;;;;;;3.08;1.90;;;20.60;90.60;;;;;;5012312;28;20037;-67
2022/08/05 08:22:25;;;;;;;4.70;2.10;;;20.60;90.50;;;;;;5012057;28;20013;-63
2022/08/05 08:24:51;;;;;;;6.07;2.53;;;20.70;90.30;;;;;;5030182;28;20470;-62
2022/08/05 08:27:17;;;;;;;5.10;2.10;;;20.70;88.70;;;;;;5012455;28;20022;-68
2022/08/05 08:29:43;;;;;;;2.70;1.88;;;20.70;88.20;;;;;;5029912;28;20034;-67
2022/08/05 08:32:08;;;;;;;4.03;1.95;;;20.70;87.70;;;;;;5030083;28;20048;-60
2022/08/05 08:34:34;;;;;;;3.33;1.85;;;20.70;87.20;;;;;;5030215;28;20386;-68
2022/08/05 08:37:00;;;;;;;2.53;1.60;;;20.70;87.00;;;;;;5029536;28;20041;-62
2022/08/05 08:39:25;;;;;;;2.92;1.80;;;20.70;85.10;;;;;;5030195;28;20029;-61
2022/08/05 08:41:55;;;;;;;2.63;1.67;;;20.70;84.50;;;;;;5029754;28;20359;-69
2022/08/05 08:44:23;;;;;;;4.18;1.30;;;20.90;84.10;;;;;;5012147;28;20045;-65
2022/08/05 08:46:48;;;;;;;2.88;1.20;;;21.10;82.30;;;;;;5030127;28;20025;-62
2022/08/05 08:49:15;;;;;;;3.22;1.60;;;21.20;80.00;;;;;;5012514;28;20022;-62
2022/08/05 08:51:46;;;;;;;2.58;1.30;;;21.30;78.50;;;;;;5029137;28;20030;-62
2022/08/05 08:54:12;;;;;;;2.80;1.33;;;21.30;78.10;;;;;;5030356;28;20053;-61
2022/08/05 08:56:38;;;;;;;7.10;1.33;;;21.40;77.00;;;;;;5029898;28;20107;-64
2022/08/05 08:59:04;;;;;;;3.20;1.27;;;21.50;77.20;;;;;;5029778;28;20043;-64
2022/08/05 09:01:30;;;;;;;4.10;1.40;;;21.70;75.70;;;;;;5030170;28;20443;-62
2022/08/05 09:03:57;;;;;;;1.73;1.02;;;21.80;74.40;;;;;;5028956;28;20034;-70
2022/08/05 09:06:24;;;;;;;4.72;1.80;;;22.00;74.30;;;;;;5032735;28;20048;-61
2022/08/05 09:08:50;;;;;;;1.95;1.40;;;22.30;73.70;;;;;;5033069;28;20021;-61
2022/08/05 09:11:15;;;;;;;3.03;1.70;;;22.40;72.10;;;;;;5014997;28;20028;-62
2022/08/05 09:13:42;;;;;;;1.88;1.27;;;22.50;72.10;;;;;;5033317;28;20113;-68
2022/08/05 09:16:10;;;;;;;2.67;1.00;;;22.60;72.50;;;;;;5033350;28;20048;-64
2022/08/05 09:18:36;;;;;;;1.45;0.77;;;22.60;70.70;;;;;;5032776;28;20068;-60
2022/08/05 09:21:03;;;;;;;2.00;0.90;;;22.40;66.50;;;;;;5033156;28;20564;-61
2022/08/05 09:23:28;;;;;;;0.60;0.60;;;22.00;66.50;;;;;;5033185;28;20017;-61
2022/08/05 09:26:18;;;;;;;1.52;0.70;;;21.80;67.90;;;;;;5032444;28;20526;-61
2022/08/05 09:28:46;;;;;;;2.25;0.80;;;21.40;68.30;;;;;;5015503;28;20022;-61
2022/08/05 09:31:13;;;;;;;1.00;0.77;;;21.20;69.40;;;;;;5033057;28;20102;-61
2022/08/05 09:33:48;;;;;;;2.65;0.85;;;21.10;71.00;;;;;;5032441;28;20025;-61
2022/08/05 09:36:14;;;;;;;1.85;0.70;;;21.00;71.70;;;;;;5032973;28;20464;-63
2022/08/05 09:39:01;;;;;;;2.45;0.90;;;21.10;71.90;;;;;;5033050;28;20367;-61
2022/08/05 09:41:27;;;;;;;1.55;0.80;;;21.20;71.60;;;;;;5033114;28;20040;-65
2022/08/05 09:43:52;;;;;;;1.25;1.10;;;21.40;71.40;;;;;;5032873;28;20022;-62
2022/08/05 09:46:33;;;;;;;2.15;0.80;;;21.50;71.70;;;;;;5032206;28;20478;-72
2022/08/05 09:49:03;;;;;;;1.52;0.90;;;21.70;69.60;;;;;;5032794;28;20021;-64
2022/08/05 09:51:34;;;;;;;1.88;0.77;;;21.90;68.70;;;;;;5014941;28;20040;-68
2022/08/05 09:54:00;;;;;;;1.40;0.90;;;22.10;66.90;;;;;;5032158;28;20060;-63
2022/08/05 09:56:34;;;;;;;1.90;0.73;;;22.20;66.10;;;;;;5032724;28;20485;-67
2022/08/05 09:59:02;;;;;;;2.38;0.90;;;22.30;66.40;;;;;;5032435;28;20099;-73
2022/08/05 10:01:29;;;;;;;1.48;0.70;;;22.30;66.20;;;;;;5032199;28;20037;-63
2022/08/05 10:04:04;;;;;;;1.30;0.60;;;22.30;64.60;;;;;;5014553;28;20511;-68
2022/08/05 10:06:30;;;;;;;0.60;0.60;;;22.30;63.90;;;;;;5014785;28;20026;-63
2022/08/05 10:09:13;;;;;;;1.00;0.73;;;22.30;63.70;;;;;;5031655;28;20396;-62
2022/08/05 10:11:39;;;;;;;2.08;0.70;;;22.50;64.40;;;;;;5014748;28;20404;-69
2022/08/05 10:14:27;;;;;;;2.45;0.50;;;22.70;64.20;;;;;;5031335;28;20025;-67
2022/08/05 10:16:55;;;;;;;0.75;0.40;;;22.90;62.10;;;;;;5032148;28;20025;-65
2022/08/05 10:19:21;;;;;;;3.00;0.68;;;22.90;60.70;;;;;;5032188;28;20034;-63
2022/08/05 10:21:48;;;;;;;0.65;0.52;;;22.90;60.00;;;;;;5013532;28;20506;-62
2022/08/05 10:24:16;;;;;;;1.10;0.50;;;22.80;59.40;;;;;;5032083;28;20470;-63
2022/08/05 10:26:44;;;;;;;0.68;0.30;;;22.70;57.10;;;;;;5014720;28;20025;-64
2022/08/05 10:29:10;;;;;;;1.00;0.50;;;22.70;55.30;;;;;;5013631;28;20013;-77
2022/08/05 10:31:38;;;;;;;1.95;0.50;;;22.80;53.90;;;;;;5014428;28;20624;-73
2022/08/05 10:34:08;;;;;;;1.88;0.60;;;22.90;53.50;;;;;;5031991;28;20469;-75
2022/08/05 10:36:39;;;;;;;0.88;0.43;;;23.20;53.20;;;;;;5013666;28;20374;-62
2022/08/05 10:39:11;;;;;;;1.88;0.65;;;23.50;53.90;;;;;;5031784;28;20022;-67
2022/08/05 10:41:45;;;;;;;0.77;0.35;;;23.70;52.90;;;;;;5031845;28;20041;-70
2022/08/05 10:44:15;;;;;;;0.82;0.35;;;23.70;51.70;;;;;;5031488;28;20055;-67
2022/08/05 10:46:46;;;;;;;0.65;0.50;;;23.60;50.40;;;;;;5031907;28;20373;-63
2022/08/05 10:49:12;;;;;;;0.90;0.47;;;23.60;50.50;;;;;;5031621;28;20014;-62
2022/08/05 10:51:49;;;;;;;1.17;0.40;;;23.80;49.80;;;;;;5031556;28;20025;-66
2022/08/05 10:54:16;;;;;;;0.80;0.40;;;24.00;48.80;;;;;;5031710;28;20108;-63
2022/08/05 10:56:54;;;;;;;1.80;0.68;;;24.10;48.70;;;;;;5030833;28;20089;-64
2022/08/05 10:59:31;;;;;;;0.93;0.50;;;24.10;47.30;;;;;;5013862;28;20117;-61
2022/08/05 11:02:10;;;;;;;2.20;0.70;;;23.70;48.10;;;;;;5031037;28;20025;-61
2022/08/05 11:04:47;;;;;;;1.27;0.38;;;23.50;47.60;;;;;;5030860;28;20033;-62
2022/08/05 11:07:16;;;;;;;0.90;0.50;;;23.40;49.40;;;;;;5031544;28;20032;-62
2022/08/05 11:09:52;;;;;;;2.88;1.30;;;23.20;49.20;;;;;;5031337;28;20442;-62
2022/08/05 11:12:35;;;;;;;3.33;1.92;;;23.10;48.90;;;;;;5012854;28;20029;-62
2022/08/05 11:15:18;;;;;;;2.20;0.60;;;22.90;48.70;;;;;;5013016;28;20525;-61
2022/08/05 11:17:54;;;;;;;0.32;0.30;;;22.90;46.80;;;;;;5012969;28;20075;-61
2022/08/05 11:20:46;;;;;;;1.02;0.45;;;22.90;44.50;;;;;;5013327;28;20029;-61
2022/08/05 11:23:49;;;;;;;0.45;0.45;;;22.90;43.60;;;;;;5031181;28;20385;-62
2022/08/05 11:26:15;;;;;;;1.98;0.60;;;23.00;43.90;;;;;;5011866;28;20332;-62
2022/08/05 11:28:43;;;;;;;1.40;0.73;;;23.20;44.70;;;;;;5030771;28;20028;-62
2022/08/05 11:31:09;;;;;;;0.93;0.82;;;23.30;44.40;;;;;;5030782;28;20030;-61
2022/08/05 11:33:51;;;;;;;2.67;1.25;;;23.40;44.70;;;;;;5030437;28;20371;-62
2022/08/05 11:36:43;;;;;;;1.73;0.70;;;23.60;44.20;;;;;;5030637;28;20041;-62
2022/08/05 11:39:10;;;;;;;1.83;0.43;;;23.90;42.90;;;;;;5029966;28;20025;-62
2022/08/05 11:41:37;;;;;;;1.10;0.57;;;24.20;41.60;;;;;;5030711;28;20032;-62
2022/08/05 11:44:14;;;;;;;1.13;0.50;;;24.30;42.50;;;;;;5030410;28;20059;-62
2022/08/05 11:46:50;;;;;;;3.90;0.82;;;24.50;42.50;;;;;;5012411;28;20029;-61
2022/08/05 11:49:18;;;;;;;0.95;0.50;;;24.50;41.90;;;;;;5031140;28;20466;-62
2022/08/05 11:51:45;;;;;;;0.35;0.35;;;24.60;41.80;;;;;;5013062;28;20358;-62
2022/08/05 11:54:12;;;;;;;0.57;0.35;;;24.60;41.90;;;;;;5030050;28;20017;-74
2022/08/05 11:56:49;;;;;;;1.25;0.38;;;24.50;42.30;;;;;;5013439;28;20051;-79
2022/08/05 11:59:17;;;;;;;0.57;0.40;;;24.30;42.20;;;;;;5030715;28;20021;-82
2022/08/05 12:01:53;;;;;;;0.85;0.30;;;24.10;42.40;;;;;;5012472;28;20021;-68
2022/08/05 12:04:18;;;;;;;1.05;0.47;;;24.10;42.80;;;;;;5030804;28;20132;-65
2022/08/05 12:06:44;;;;;;;0.75;0.43;;;24.10;43.20;;;;;;5030239;28;20100;-71
2022/08/05 12:09:10;;;;;;;0.35;0.28;;;24.20;42.90;;;;;;5030494;28;20494;-69
2022/08/05 12:11:37;;;;;;;0.75;0.63;;;24.20;42.60;;;;;;5030874;28;20105;-62
2022/08/05 12:14:07;;;;;;;3.10;0.40;;;24.20;42.70;;;;;;5029635;28;20025;-74
2022/08/05 12:16:38;;;;;;;0.57;0.40;;;24.20;43.30;;;;;;5031012;28;20061;-71
2022/08/05 12:19:11;;;;;;;1.40;0.40;;;24.20;43.10;;;;;;5030826;28;20105;-71
2022/08/05 12:21:48;;;;;;;2.15;0.40;;;24.30;43.20;;;;;;5029969;28;20486;-70
2022/08/05 12:24:20;;;;;;;1.40;0.93;;;24.40;42.20;;;;;;5013177;28;20021;-62
2022/08/05 12:26:47;;;;;;;3.15;0.35;;;24.50;41.60;;;;;;5030421;28;20175;-67
2022/08/05 12:29:17;;;;;;;0.88;0.35;;;24.60;41.20;;;;;;5030370;28;20547;-72
2022/08/05 12:31:53;;;;;;;0.80;0.40;;;24.50;41.50;;;;;;5012931;28;20426;-73
2022/08/05 12:34:27;;;;;;;0.85;0.38;;;24.60;39.70;;;;;;5030886;28;20097;-74
2022/08/05 12:36:54;;;;;;;0.93;0.30;;;24.50;39.70;;;;;;5029468;28;20033;-76
2022/08/05 12:39:22;;;;;;;4.63;1.02;;;24.40;39.90;;;;;;5031612;28;20040;-62
2022/08/05 12:41:48;;;;;;;0.45;0.40;;;24.30;39.40;;;;;;5033204;28;20029;-78
2022/08/05 12:44:15;;;;;;;2.05;0.40;;;24.30;40.40;;;;;;5034420;28;20034;-82
2022/08/05 12:46:42;;;;;;;0.30;0.30;;;24.50;40.50;;;;;;5034263;28;20048;-80
2022/08/05 12:49:10;;;;;;;2.22;0.77;;;24.60;39.20;;;;;;5033592;28;20045;-64
2022/08/05 12:51:55;;;;;;;0.40;0.40;;;24.50;39.60;;;;;;5034719;28;20021;-80
2022/08/05 12:54:25;;;;;;;0.52;0.40;;;24.40;40.50;;;;;;5034882;28;20099;-82
2022/08/05 12:56:52;;;;;;;;;;;24.30;41.00;;;;;;5033895;28;20457;-73
2022/08/05 12:59:22;;;;;;;0.20;0.20;;;24.20;40.40;;;;;;5033910;28;19909;-75
2022/08/05 13:01:57;;;;;;;2.20;0.50;;;24.20;41.50;;;;;;5033902;28;20025;-80